Terminal Aerodrome Forecast
Issued by NWS Cleveland, OH

Home | Current Version | Previous Version | Graphics & Text | Print | Product List | Glossary On
Versions: 1 2 3 4 5 6 7 8 9 10 11 12 13
886
FTUS41 KCLE 021134
TAFTOL
TAF
KTOL 021134Z 0212/0312 25014KT P6SM OVC040
      TEMPO 0212/0216 P6SM BKN025
     FM021800 27012G20KT P6SM SCT025 BKN040
     FM030000 27006KT P6SM SCT040=

USA.gov is the U.S. government's official web portal to all federal, state and local government web resources and services.